createdAt,value
2022-12-15T00:00:11.642Z,999.88
2022-12-15T00:01:11.525Z,999.84
2022-12-15T00:02:11.420Z,999.88
2022-12-15T00:03:11.393Z,999.82
2022-12-15T00:04:11.179Z,999.83
2022-12-15T00:05:11.126Z,999.81
2022-12-15T00:06:11.053Z,999.82
2022-12-15T00:07:10.940Z,999.82
2022-12-15T00:08:10.877Z,999.83
2022-12-15T00:09:14.280Z,999.85
2022-12-15T00:10:10.710Z,999.87
2022-12-15T00:11:10.661Z,999.89
2022-12-15T00:12:10.612Z,999.88
2022-12-15T00:13:10.505Z,999.87
2022-12-15T00:14:10.422Z,999.86
2022-12-15T00:15:10.416Z,999.86
2022-12-15T00:16:10.417Z,999.83
2022-12-15T00:17:10.356Z,999.79
2022-12-15T00:18:10.130Z,999.81
2022-12-15T00:19:10.019Z,999.85
2022-12-15T00:20:09.999Z,999.82
2022-12-15T00:21:09.874Z,999.81
2022-12-15T00:22:09.824Z,999.81
2022-12-15T00:23:09.730Z,999.81
2022-12-15T00:24:09.729Z,999.81
2022-12-15T00:25:09.691Z,999.77
2022-12-15T00:26:09.522Z,999.83
2022-12-15T00:27:09.410Z,999.80
2022-12-15T00:28:09.325Z,999.80
2022-12-15T00:29:09.274Z,999.81
2022-12-15T00:30:09.209Z,999.85
2022-12-15T00:31:09.177Z,999.85
2022-12-15T00:32:09.066Z,999.85
2022-12-15T00:33:08.944Z,999.86
2022-12-15T00:34:08.872Z,999.87
2022-12-15T00:35:08.875Z,999.84
2022-12-15T00:36:08.806Z,999.84
2022-12-15T00:37:08.701Z,999.83
2022-12-15T00:38:08.617Z,999.84
2022-12-15T00:39:08.507Z,999.83
2022-12-15T00:40:08.404Z,999.82
2022-12-15T00:41:08.366Z,999.81
2022-12-15T00:42:08.251Z,999.80
2022-12-15T00:43:08.230Z,999.81
2022-12-15T00:44:08.215Z,999.85
2022-12-15T00:45:08.035Z,999.83
2022-12-15T00:46:08.084Z,999.83
2022-12-15T00:47:07.948Z,999.83
2022-12-15T00:48:07.805Z,999.85
2022-12-15T00:49:07.721Z,999.90
2022-12-15T00:50:07.646Z,999.91
2022-12-15T00:51:07.580Z,999.88
2022-12-15T00:52:07.737Z,999.90
2022-12-15T00:53:07.411Z,999.90
2022-12-15T00:54:07.368Z,999.92
2022-12-15T00:55:07.310Z,999.92
2022-12-15T00:56:07.176Z,999.97
2022-12-15T00:57:07.086Z,999.95
2022-12-15T00:58:07.262Z,999.96
2022-12-15T00:59:06.945Z,999.97
2022-12-15T01:00:06.927Z,999.98
2022-12-15T01:01:06.809Z,999.93
2022-12-15T01:02:06.889Z,999.93
2022-12-15T01:03:06.852Z,999.96
2022-12-15T01:04:06.648Z,999.95
2022-12-15T01:05:06.487Z,999.97
2022-12-15T01:06:06.689Z,999.91
2022-12-15T01:07:06.351Z,999.94
2022-12-15T01:08:07.742Z,999.94
2022-12-15T01:09:06.198Z,999.97
2022-12-15T01:10:06.108Z,999.96
2022-12-15T01:11:06.079Z,999.98
2022-12-15T01:12:05.957Z,1000.00
2022-12-15T01:13:05.857Z,999.99
2022-12-15T01:14:05.773Z,1000.00
2022-12-15T01:15:05.713Z,999.99
2022-12-15T01:16:05.677Z,1000.01
2022-12-15T01:17:05.582Z,1000.03
2022-12-15T01:18:05.499Z,999.97
2022-12-15T01:19:05.454Z,999.94
2022-12-15T01:20:05.319Z,999.96
2022-12-15T01:21:05.239Z,999.96
2022-12-15T01:22:05.164Z,999.95
2022-12-15T01:23:05.126Z,999.96
2022-12-15T01:24:05.031Z,999.95
2022-12-15T01:25:04.955Z,999.97
2022-12-15T01:26:04.874Z,999.94
2022-12-15T01:27:04.771Z,999.97
2022-12-15T01:28:04.762Z,999.97
2022-12-15T01:29:04.623Z,999.96
2022-12-15T01:30:04.584Z,1000.01
2022-12-15T01:31:04.547Z,1000.02
2022-12-15T01:32:04.403Z,1000.04
2022-12-15T01:33:04.376Z,1000.07
2022-12-15T01:34:04.276Z,1000.06
2022-12-15T01:35:04.213Z,1000.06
2022-12-15T01:36:04.094Z,1000.09
2022-12-15T01:37:04.025Z,1000.10
2022-12-15T01:38:03.950Z,1000.08
2022-12-15T01:39:03.859Z,1000.13
2022-12-15T01:40:03.765Z,1000.13
2022-12-15T01:41:03.723Z,1000.15
2022-12-15T01:42:03.624Z,1000.16
2022-12-15T01:43:03.573Z,1000.14
2022-12-15T01:44:03.479Z,1000.14
2022-12-15T01:45:03.404Z,1000.18
2022-12-15T01:46:03.337Z,1000.16
2022-12-15T01:47:03.293Z,1000.19
2022-12-15T01:48:03.149Z,1000.14
2022-12-15T01:49:03.164Z,1000.12
2022-12-15T01:50:02.994Z,1000.14
2022-12-15T01:51:02.980Z,1000.12
2022-12-15T01:52:02.861Z,1000.13
2022-12-15T01:53:10.491Z,1000.16
2022-12-15T01:55:08.262Z,1000.13
2022-12-15T01:56:06.550Z,1000.16
2022-12-15T01:58:11.522Z,1000.16
2022-12-15T01:59:10.384Z,1000.13
2022-12-15T02:01:14.338Z,1000.11
2022-12-15T02:02:14.277Z,1000.08
2022-12-15T02:03:14.159Z,1000.08
2022-12-15T02:04:14.033Z,1000.06
2022-12-15T02:05:13.939Z,1000.01
2022-12-15T02:06:13.892Z,1000.06
2022-12-15T02:07:13.791Z,1000.05
2022-12-15T02:08:13.773Z,1000.07
2022-12-15T02:09:13.622Z,1000.06
2022-12-15T02:10:13.557Z,1000.05
2022-12-15T02:11:13.493Z,1000.02
2022-12-15T02:12:13.388Z,1000.05
2022-12-15T02:13:13.313Z,1000.03
2022-12-15T02:14:13.276Z,1000.05
2022-12-15T02:15:13.443Z,1000.08
2022-12-15T02:16:13.154Z,1000.07
2022-12-15T02:17:13.065Z,1000.09
2022-12-15T02:18:12.932Z,1000.17
2022-12-15T02:19:12.865Z,1000.20
2022-12-15T02:20:12.778Z,1000.21
2022-12-15T02:21:12.705Z,1000.19
2022-12-15T02:22:12.628Z,1000.20
2022-12-15T02:23:12.545Z,1000.15
2022-12-15T02:24:12.478Z,1000.17
2022-12-15T02:25:12.422Z,1000.17
2022-12-15T02:26:12.353Z,1000.13
2022-12-15T02:27:12.248Z,1000.12
2022-12-15T02:28:12.156Z,1000.14
2022-12-15T02:29:12.131Z,1000.14
2022-12-15T02:30:12.015Z,1000.14
2022-12-15T02:31:11.999Z,1000.17
2022-12-15T02:32:11.870Z,1000.20
2022-12-15T02:33:11.832Z,1000.25
2022-12-15T02:34:11.691Z,1000.30
2022-12-15T02:35:11.648Z,1000.38
2022-12-15T02:36:11.534Z,1000.45
2022-12-15T02:37:11.661Z,1000.46
2022-12-15T02:38:11.401Z,1000.49
2022-12-15T02:39:11.322Z,1000.50
2022-12-15T02:40:11.302Z,1000.52
2022-12-15T02:41:11.258Z,1000.58
2022-12-15T02:42:11.076Z,1000.57
2022-12-15T02:43:11.019Z,1000.59
2022-12-15T02:44:10.952Z,1000.64
2022-12-15T02:45:10.852Z,1000.69
2022-12-15T02:46:10.934Z,1000.66
2022-12-15T02:47:10.695Z,1000.70
2022-12-15T02:48:10.609Z,1000.70
2022-12-15T02:49:10.568Z,1000.70
2022-12-15T02:50:10.484Z,1000.73
2022-12-15T02:51:10.390Z,1000.75
2022-12-15T02:52:10.382Z,1000.76
2022-12-15T02:53:10.309Z,1000.82
2022-12-15T02:54:10.228Z,1000.82
2022-12-15T02:55:10.109Z,1000.84
2022-12-15T02:56:10.046Z,1000.84
2022-12-15T02:57:09.945Z,1000.84
2022-12-15T02:58:09.831Z,1000.81
2022-12-15T02:59:09.770Z,1000.84
2022-12-15T03:00:09.771Z,1000.86
2022-12-15T03:01:09.687Z,1000.86
2022-12-15T03:02:09.729Z,1000.83
2022-12-15T03:03:09.520Z,1000.85
2022-12-15T03:04:09.374Z,1000.78
2022-12-15T03:05:09.289Z,1000.77
2022-12-15T03:06:09.227Z,1000.76
2022-12-15T03:07:09.144Z,1000.75
2022-12-15T03:08:09.170Z,1000.74
2022-12-15T03:09:08.991Z,1000.74
2022-12-15T03:10:08.913Z,1000.76
2022-12-15T03:11:08.910Z,1000.79
2022-12-15T03:12:08.811Z,1000.75
2022-12-15T03:13:08.694Z,1000.81
2022-12-15T03:14:08.620Z,1000.77
2022-12-15T03:15:08.574Z,1000.81
2022-12-15T03:16:08.537Z,1000.77
2022-12-15T03:17:08.419Z,1000.77
2022-12-15T03:18:08.303Z,1000.78
2022-12-15T03:19:08.312Z,1000.74
2022-12-15T03:20:08.165Z,1000.79
2022-12-15T03:21:08.133Z,1000.75
2022-12-15T03:22:08.019Z,1000.78
2022-12-15T03:23:07.948Z,1000.76
2022-12-15T03:24:07.829Z,1000.76
2022-12-15T03:25:07.751Z,1000.79
2022-12-15T03:26:07.739Z,1000.76
2022-12-15T03:27:07.655Z,1000.77
2022-12-15T03:28:07.638Z,1000.80
2022-12-15T03:29:07.498Z,1000.80
2022-12-15T03:30:07.378Z,1000.83
2022-12-15T03:31:07.320Z,1000.84
2022-12-15T03:32:07.318Z,1000.83
2022-12-15T03:33:07.203Z,1000.85
2022-12-15T03:34:07.110Z,1000.84
2022-12-15T03:35:07.050Z,1000.87
2022-12-15T03:36:06.923Z,1000.86
2022-12-15T03:37:06.839Z,1000.84
2022-12-15T03:38:06.789Z,1000.86
2022-12-15T03:39:06.694Z,1000.85
2022-12-15T03:40:06.623Z,1000.86
2022-12-15T03:41:06.527Z,1000.83
2022-12-15T03:42:06.451Z,1000.85
2022-12-15T03:43:06.388Z,1000.81
2022-12-15T03:44:06.314Z,1000.79
2022-12-15T03:45:06.257Z,1000.78
2022-12-15T03:46:06.190Z,1000.75
2022-12-15T03:47:06.102Z,1000.79
2022-12-15T03:48:06.048Z,1000.78
2022-12-15T03:49:05.968Z,1000.77
2022-12-15T03:50:05.893Z,1000.78
2022-12-15T03:51:05.772Z,1000.81
2022-12-15T03:52:05.745Z,1000.81
2022-12-15T03:53:05.622Z,1000.82
2022-12-15T03:54:05.553Z,1000.90
2022-12-15T03:55:05.482Z,1000.94
2022-12-15T03:56:05.427Z,1000.96
2022-12-15T03:57:05.324Z,1000.97
2022-12-15T03:58:05.239Z,1001.00
2022-12-15T03:59:05.171Z,1001.06
2022-12-15T04:00:05.076Z,1001.07
2022-12-15T04:01:05.046Z,1001.13
2022-12-15T04:02:05.150Z,1001.07
2022-12-15T04:03:04.917Z,1001.04
2022-12-15T04:04:04.891Z,1001.06
2022-12-15T04:05:04.762Z,1001.03
2022-12-15T04:06:04.681Z,1001.06
2022-12-15T04:07:04.571Z,1001.10
2022-12-15T04:08:04.578Z,1001.09
2022-12-15T04:09:04.405Z,1001.10
2022-12-15T04:10:04.327Z,1001.07
2022-12-15T04:11:04.272Z,1001.10
2022-12-15T04:12:04.176Z,1001.10
2022-12-15T04:13:04.110Z,1001.11
2022-12-15T04:14:04.011Z,1001.07
2022-12-15T04:15:03.951Z,1001.09
2022-12-15T04:16:03.859Z,1001.09
2022-12-15T04:17:03.965Z,1001.05
2022-12-15T04:18:03.781Z,1001.06
2022-12-15T04:19:03.675Z,1001.08
2022-12-15T04:20:03.586Z,1001.12
2022-12-15T04:21:03.502Z,1001.11
2022-12-15T04:22:03.441Z,1001.11
2022-12-15T04:23:03.318Z,1001.11
2022-12-15T04:24:03.280Z,1001.18
2022-12-15T04:25:03.166Z,1001.14
2022-12-15T04:26:03.114Z,1001.15
2022-12-15T04:27:03.042Z,1001.13
2022-12-15T04:28:02.988Z,1001.11
2022-12-15T04:29:02.875Z,1001.12
2022-12-15T04:30:02.797Z,1001.12
2022-12-15T04:31:02.847Z,1001.12
2022-12-15T04:32:02.643Z,1001.16
2022-12-15T04:33:02.590Z,1001.16
2022-12-15T04:34:02.477Z,1001.22
2022-12-15T04:35:02.481Z,1001.24
2022-12-15T04:36:02.324Z,1001.22
2022-12-15T04:37:02.340Z,1001.22
2022-12-15T04:38:02.193Z,1001.23
2022-12-15T04:39:02.121Z,1001.25
2022-12-15T04:40:02.021Z,1001.29
2022-12-15T04:41:01.967Z,1001.28
2022-12-15T04:42:01.880Z,1001.35
2022-12-15T04:43:01.872Z,1001.32
2022-12-15T04:44:01.838Z,1001.36
2022-12-15T04:45:01.655Z,1001.42
2022-12-15T04:46:01.607Z,1001.46
2022-12-15T04:47:01.503Z,1001.48
2022-12-15T04:48:01.422Z,1001.56
2022-12-15T04:49:01.347Z,1001.56
2022-12-15T04:50:01.256Z,1001.54
2022-12-15T04:51:01.183Z,1001.55
2022-12-15T04:52:01.204Z,1001.58
2022-12-15T04:53:01.050Z,1001.58
2022-12-15T04:54:00.964Z,1001.64
2022-12-15T04:55:00.902Z,1001.67
2022-12-15T04:56:00.793Z,1001.69
2022-12-15T04:57:00.752Z,1001.68
2022-12-15T04:58:00.647Z,1001.70
2022-12-15T04:59:00.612Z,1001.73
2022-12-15T05:00:00.510Z,1001.77
2022-12-15T05:01:00.531Z,1001.76
2022-12-15T05:02:00.503Z,1001.82
2022-12-15T05:03:00.266Z,1001.82
2022-12-15T05:04:00.329Z,1001.79
2022-12-15T05:05:00.143Z,1001.81
2022-12-15T05:06:00.033Z,1001.85
2022-12-15T05:06:59.992Z,1001.88
2022-12-15T05:08:00.016Z,1001.84
2022-12-15T05:08:59.858Z,1001.84
2022-12-15T05:10:03.303Z,1001.86
2022-12-15T05:10:59.654Z,1001.82
2022-12-15T05:11:59.604Z,1001.77
2022-12-15T05:12:59.501Z,1001.69
2022-12-15T05:13:59.432Z,1001.75
2022-12-15T05:14:59.348Z,1001.70
2022-12-15T05:15:59.364Z,1001.71
2022-12-15T05:16:59.247Z,1001.71
2022-12-15T05:17:59.135Z,1001.73
2022-12-15T05:18:59.101Z,1001.73
2022-12-15T05:19:59.034Z,1001.64
2022-12-15T05:20:59.020Z,1001.77
2022-12-15T05:21:58.860Z,1001.81
2022-12-15T05:22:58.827Z,1001.81
2022-12-15T05:23:58.670Z,1001.79
2022-12-15T05:24:58.619Z,1001.88
2022-12-15T05:25:58.500Z,1001.90
2022-12-15T05:26:58.448Z,1001.89
2022-12-15T05:27:58.378Z,1001.92
2022-12-15T05:28:58.278Z,1001.93
2022-12-15T05:29:58.246Z,1001.94
2022-12-15T05:30:58.186Z,1001.92
2022-12-15T05:31:58.043Z,1001.94
2022-12-15T05:32:57.977Z,1001.94
2022-12-15T05:34:04.516Z,1001.94
2022-12-15T05:34:57.821Z,1002.02
2022-12-15T05:35:57.763Z,1001.98
2022-12-15T05:36:57.718Z,1001.98
2022-12-15T05:37:57.587Z,1001.98
2022-12-15T05:38:57.531Z,1001.92
2022-12-15T05:39:57.449Z,1001.92
2022-12-15T05:40:57.357Z,1001.94
2022-12-15T05:41:57.329Z,1001.95
2022-12-15T05:42:57.287Z,1002.01
2022-12-15T05:43:57.142Z,1001.98
2022-12-15T05:44:57.056Z,1002.02
2022-12-15T05:45:57.045Z,1002.02
2022-12-15T05:46:56.923Z,1002.03
2022-12-15T05:47:56.965Z,1002.05
2022-12-15T05:48:56.761Z,1002.12
2022-12-15T05:49:56.687Z,1002.13
2022-12-15T05:50:56.650Z,1002.17
2022-12-15T05:51:56.527Z,1002.18
2022-12-15T05:52:56.483Z,1002.26
2022-12-15T05:53:56.390Z,1002.30
2022-12-15T05:54:56.325Z,1002.31
2022-12-15T05:55:56.225Z,1002.33
2022-12-15T05:56:56.137Z,1002.36
2022-12-15T05:57:56.068Z,1002.37
2022-12-15T05:58:56.130Z,1002.38
2022-12-15T05:59:55.989Z,1002.35
2022-12-15T06:00:55.837Z,1002.37
2022-12-15T06:01:55.908Z,1002.37
2022-12-15T06:02:55.721Z,1002.31
2022-12-15T06:03:55.615Z,1002.29
2022-12-15T06:04:55.607Z,1002.37
2022-12-15T06:05:56.725Z,1002.51
2022-12-15T06:06:55.422Z,1002.54
2022-12-15T06:07:55.332Z,1002.58
2022-12-15T06:08:55.269Z,1002.53
2022-12-15T06:09:55.161Z,1002.50
2022-12-15T06:10:55.124Z,1002.53
2022-12-15T06:11:55.036Z,1002.57
2022-12-15T06:12:55.060Z,1002.58
2022-12-15T06:13:55.057Z,1002.55
2022-12-15T06:14:54.956Z,1002.54
2022-12-15T06:15:54.758Z,1002.52
2022-12-15T06:16:54.698Z,1002.47
2022-12-15T06:17:54.590Z,1002.44
2022-12-15T06:18:54.547Z,1002.47
2022-12-15T06:19:54.408Z,1002.47
2022-12-15T06:20:54.351Z,1002.47
2022-12-15T06:21:54.296Z,1002.44
2022-12-15T06:22:54.159Z,1002.51
2022-12-15T06:23:54.199Z,1002.55
2022-12-15T06:24:54.069Z,1002.51
2022-12-15T06:25:54.011Z,1002.49
2022-12-15T06:26:53.853Z,1002.48
2022-12-15T06:27:58.354Z,1002.48
2022-12-15T06:28:53.721Z,1002.47
2022-12-15T06:29:53.627Z,1002.44
2022-12-15T06:30:53.611Z,1002.50
2022-12-15T06:31:53.533Z,1002.45
2022-12-15T06:32:53.424Z,1002.47
2022-12-15T06:33:59.168Z,1002.47
2022-12-15T06:34:53.280Z,1002.48
2022-12-15T06:35:53.188Z,1002.51
2022-12-15T06:36:53.224Z,1002.45
2022-12-15T06:37:53.036Z,1002.47
2022-12-15T06:38:52.979Z,1002.46
2022-12-15T06:39:52.895Z,1002.53
2022-12-15T06:40:52.835Z,1002.50
2022-12-15T06:41:52.833Z,1002.50
2022-12-15T06:42:52.695Z,1002.52
2022-12-15T06:43:52.712Z,1002.51
2022-12-15T06:44:52.510Z,1002.56
2022-12-15T06:45:52.708Z,1002.56
2022-12-15T06:46:52.457Z,1002.60
2022-12-15T06:47:55.343Z,1002.63
2022-12-15T06:48:52.192Z,1002.68
2022-12-15T06:49:52.215Z,1002.70
2022-12-15T06:50:52.034Z,1002.73
2022-12-15T06:51:52.042Z,1002.71
2022-12-15T06:52:52.065Z,1002.69
2022-12-15T06:53:51.829Z,1002.73
2022-12-15T06:54:51.757Z,1002.71
2022-12-15T06:55:51.658Z,1002.75
2022-12-15T06:56:51.656Z,1002.72
2022-12-15T06:57:51.638Z,1002.72
2022-12-15T06:58:51.693Z,1002.81
2022-12-15T06:59:51.434Z,1002.83
2022-12-15T07:00:51.337Z,1002.87
2022-12-15T07:01:51.684Z,1002.90
2022-12-15T07:02:51.349Z,1002.85
2022-12-15T07:03:51.312Z,1002.88
2022-12-15T07:04:51.063Z,1002.91
2022-12-15T07:05:50.897Z,1002.98
2022-12-15T07:06:50.882Z,1002.94
2022-12-15T07:07:50.721Z,1003.01
2022-12-15T07:08:50.789Z,1003.02
2022-12-15T07:09:50.735Z,1003.06
2022-12-15T07:10:50.554Z,1003.03
2022-12-15T07:11:50.495Z,1003.10
2022-12-15T07:12:50.341Z,1003.13
2022-12-15T07:13:50.329Z,1003.14
2022-12-15T07:14:53.514Z,1003.22
2022-12-15T07:15:50.257Z,1003.20
2022-12-15T07:16:50.064Z,1003.20
2022-12-15T07:17:49.991Z,1003.25
2022-12-15T07:18:49.940Z,1003.27
2022-12-15T07:19:49.845Z,1003.32
2022-12-15T07:20:49.860Z,1003.34
2022-12-15T07:21:49.686Z,1003.31
2022-12-15T07:22:49.776Z,1003.38
2022-12-15T07:23:57.554Z,1003.34
2022-12-15T07:24:49.471Z,1003.37
2022-12-15T07:25:49.518Z,1003.39
2022-12-15T07:26:49.329Z,1003.40
2022-12-15T07:27:49.489Z,1003.41
2022-12-15T07:28:49.141Z,1003.43
2022-12-15T07:29:49.088Z,1003.44
2022-12-15T07:30:49.056Z,1003.39
2022-12-15T07:31:48.955Z,1003.40
2022-12-15T07:32:50.259Z,1003.41
2022-12-15T07:33:48.858Z,1003.45
2022-12-15T07:34:48.665Z,1003.44
2022-12-15T07:35:48.647Z,1003.47
2022-12-15T07:36:52.061Z,1003.48
2022-12-15T07:37:48.490Z,1003.44
2022-12-15T07:38:50.771Z,1003.47
2022-12-15T07:39:48.411Z,1003.50
2022-12-15T07:40:48.261Z,1003.52
2022-12-15T07:41:48.150Z,1003.55
2022-12-15T07:42:48.141Z,1003.56
2022-12-15T07:43:48.299Z,1003.59
2022-12-15T07:44:49.996Z,1003.57
2022-12-15T07:45:51.436Z,1003.60
2022-12-15T07:46:47.760Z,1003.55
2022-12-15T07:47:47.709Z,1003.54
2022-12-15T07:48:50.297Z,1003.60
2022-12-15T07:49:47.585Z,1003.63
2022-12-15T07:50:47.473Z,1003.64
2022-12-15T07:51:47.385Z,1003.66
2022-12-15T07:52:47.427Z,1003.67
2022-12-15T07:53:47.212Z,1003.67
2022-12-15T07:54:47.175Z,1003.70
2022-12-15T07:56:06.359Z,1003.74
2022-12-15T07:56:50.518Z,1003.76
2022-12-15T07:57:46.919Z,1003.76
2022-12-15T07:58:46.875Z,1003.77
2022-12-15T07:59:46.780Z,1003.79
2022-12-15T08:00:48.929Z,1003.80
2022-12-15T08:01:46.974Z,1003.84
2022-12-15T08:02:46.813Z,1003.86
2022-12-15T08:03:46.757Z,1003.88
2022-12-15T08:04:46.485Z,1003.84
2022-12-15T08:05:46.322Z,1003.85
2022-12-15T08:06:46.350Z,1003.83
2022-12-15T08:07:46.217Z,1003.85
2022-12-15T08:08:50.571Z,1003.86
2022-12-15T08:09:46.023Z,1003.91
2022-12-15T08:10:45.955Z,1003.89
2022-12-15T08:11:45.909Z,1003.93
2022-12-15T08:12:45.841Z,1003.96
2022-12-15T08:14:02.944Z,1004.01
2022-12-15T08:14:45.814Z,1004.01
2022-12-15T08:15:45.655Z,1003.98
2022-12-15T08:16:45.611Z,1003.99
2022-12-15T08:17:45.443Z,1003.92
2022-12-15T08:18:45.332Z,1004.01
2022-12-15T08:19:45.364Z,1004.09
2022-12-15T08:20:45.350Z,1004.12
2022-12-15T08:21:45.127Z,1004.10
2022-12-15T08:22:45.065Z,1004.04
2022-12-15T08:23:45.015Z,1004.08
2022-12-15T08:24:44.939Z,1004.15
2022-12-15T08:25:44.827Z,1004.10
2022-12-15T08:26:44.791Z,1004.09
2022-12-15T08:27:44.774Z,1004.12
2022-12-15T08:28:44.622Z,1004.11
2022-12-15T08:29:52.588Z,1004.15
2022-12-15T08:30:44.489Z,1004.17
2022-12-15T08:31:44.586Z,1004.23
2022-12-15T08:32:51.600Z,1004.26
2022-12-15T08:33:44.277Z,1004.26
2022-12-15T08:34:44.247Z,1004.25
2022-12-15T08:35:56.450Z,1004.27
2022-12-15T08:36:44.082Z,1004.33
2022-12-15T08:37:43.988Z,1004.31
2022-12-15T08:38:43.969Z,1004.35
2022-12-15T08:39:43.888Z,1004.32
2022-12-15T08:40:43.882Z,1004.35
2022-12-15T08:41:43.679Z,1004.34
2022-12-15T08:42:43.682Z,1004.36
2022-12-15T08:43:48.667Z,1004.35
2022-12-15T08:44:43.523Z,1004.36
2022-12-15T08:45:43.540Z,1004.35
2022-12-15T08:46:43.374Z,1004.39
2022-12-15T08:47:43.314Z,1004.36
2022-12-15T08:48:43.390Z,1004.41
2022-12-15T08:49:43.152Z,1004.38
2022-12-15T08:50:43.133Z,1004.43
2022-12-15T08:51:43.019Z,1004.43
2022-12-15T08:53:00.672Z,1004.43
2022-12-15T08:53:43.237Z,1004.42
2022-12-15T08:54:42.849Z,1004.44
2022-12-15T08:55:42.764Z,1004.46
2022-12-15T08:56:42.679Z,1004.46
2022-12-15T08:57:42.599Z,1004.45
2022-12-15T08:58:42.534Z,1004.46
2022-12-15T08:59:42.570Z,1004.54
2022-12-15T09:00:42.455Z,1004.55
2022-12-15T09:01:42.477Z,1004.50
2022-12-15T09:02:42.370Z,1004.50
2022-12-15T09:03:42.228Z,1004.49
2022-12-15T09:04:42.176Z,1004.51
2022-12-15T09:05:42.268Z,1004.48
2022-12-15T09:06:42.007Z,1004.49
2022-12-15T09:07:42.035Z,1004.46
2022-12-15T09:08:41.842Z,1004.49
2022-12-15T09:09:42.037Z,1004.54
2022-12-15T09:10:43.075Z,1004.53
2022-12-15T09:11:41.763Z,1004.54
2022-12-15T09:12:41.630Z,1004.55
2022-12-15T09:13:41.684Z,1004.58
2022-12-15T09:14:41.669Z,1004.61
2022-12-15T09:16:08.332Z,1004.58
2022-12-15T09:16:41.384Z,1004.53
2022-12-15T09:17:41.259Z,1004.53
2022-12-15T09:18:41.364Z,1004.55
2022-12-15T09:19:41.147Z,1004.53
2022-12-15T09:20:41.032Z,1004.55
2022-12-15T09:21:40.970Z,1004.56
2022-12-15T09:22:40.933Z,1004.55
2022-12-15T09:23:40.871Z,1004.50
2022-12-15T09:24:40.796Z,1004.51
2022-12-15T09:25:40.834Z,1004.52
2022-12-15T09:26:40.636Z,1004.58
2022-12-15T09:27:40.766Z,1004.58
2022-12-15T09:28:40.552Z,1004.63
2022-12-15T09:29:40.473Z,1004.65
2022-12-15T09:30:40.474Z,1004.70
2022-12-15T09:31:40.336Z,1004.76
2022-12-15T09:32:40.301Z,1004.76
2022-12-15T09:33:40.255Z,1004.78
2022-12-15T09:34:40.191Z,1004.78
2022-12-15T09:35:40.164Z,1004.82
2022-12-15T09:36:40.004Z,1004.82
2022-12-15T09:37:39.942Z,1004.84
2022-12-15T09:38:40.111Z,1004.81
2022-12-15T09:39:39.978Z,1004.81
2022-12-15T09:40:39.948Z,1004.83
2022-12-15T09:41:39.668Z,1004.83
2022-12-15T09:42:39.638Z,1004.81
2022-12-15T09:43:46.053Z,1004.76
2022-12-15T09:44:39.499Z,1004.76
2022-12-15T09:45:39.578Z,1004.70
2022-12-15T09:46:40.030Z,1004.71
2022-12-15T09:47:39.334Z,1004.71
2022-12-15T09:48:39.264Z,1004.67
2022-12-15T09:49:39.213Z,1004.67
2022-12-15T09:50:39.137Z,1004.71
2022-12-15T09:51:39.018Z,1004.73
2022-12-15T09:52:38.980Z,1004.71
2022-12-15T09:53:54.688Z,1004.74
2022-12-15T09:54:38.903Z,1004.75
2022-12-15T09:55:38.770Z,1004.75
2022-12-15T09:56:38.679Z,1004.70
2022-12-15T09:57:38.611Z,1004.70
2022-12-15T09:58:38.721Z,1004.67
2022-12-15T09:59:38.516Z,1004.70
2022-12-15T10:00:38.796Z,1004.71
2022-12-15T10:01:38.418Z,1004.65
2022-12-15T10:02:38.504Z,1004.64
2022-12-15T10:03:39.263Z,1004.62
2022-12-15T10:04:38.179Z,1004.65
2022-12-15T10:06:06.841Z,1004.68
2022-12-15T10:06:38.025Z,1004.66
2022-12-15T10:07:38.133Z,1004.70
2022-12-15T10:08:37.980Z,1004.70
2022-12-15T10:09:37.958Z,1004.71
2022-12-15T10:10:37.768Z,1004.74
2022-12-15T10:11:37.763Z,1004.73
2022-12-15T10:12:37.770Z,1004.71
2022-12-15T10:13:37.586Z,1004.80
2022-12-15T10:14:37.532Z,1004.76
2022-12-15T10:15:37.502Z,1004.78
2022-12-15T10:16:37.534Z,1004.71
2022-12-15T10:17:37.400Z,1004.71
2022-12-15T10:18:37.328Z,1004.71
2022-12-15T10:19:37.150Z,1004.68
2022-12-15T10:20:37.110Z,1004.66
2022-12-15T10:21:37.002Z,1004.66
2022-12-15T10:22:36.986Z,1004.72
2022-12-15T10:23:37.213Z,1004.66
2022-12-15T10:25:08.572Z,1004.67
2022-12-15T10:25:36.748Z,1004.70
2022-12-15T10:26:36.702Z,1004.66
2022-12-15T10:27:36.591Z,1004.68
2022-12-15T10:28:36.542Z,1004.66
2022-12-15T10:29:36.628Z,1004.69
2022-12-15T10:30:36.511Z,1004.70
2022-12-15T10:31:36.429Z,1004.63
2022-12-15T10:32:42.444Z,1004.67
2022-12-15T10:33:36.345Z,1004.64
2022-12-15T10:34:36.268Z,1004.70
2022-12-15T10:35:36.144Z,1004.70
2022-12-15T10:36:36.081Z,1004.76
2022-12-15T10:37:35.901Z,1004.72
2022-12-15T10:38:35.840Z,1004.69
2022-12-15T10:39:35.894Z,1004.74
2022-12-15T10:40:35.754Z,1004.69
2022-12-15T10:41:35.733Z,1004.70
2022-12-15T10:42:35.657Z,1004.71
2022-12-15T10:43:36.222Z,1004.74
2022-12-15T10:44:35.578Z,1004.73
2022-12-15T10:45:35.433Z,1004.76
2022-12-15T10:46:35.326Z,1004.75
2022-12-15T10:47:35.243Z,1004.80
2022-12-15T10:48:35.391Z,1004.81
2022-12-15T10:49:35.236Z,1004.80
2022-12-15T10:50:35.007Z,1004.75
2022-12-15T10:51:34.944Z,1004.76
2022-12-15T10:52:34.880Z,1004.77
2022-12-15T10:53:35.095Z,1004.81
2022-12-15T10:54:34.723Z,1004.81
2022-12-15T10:55:34.678Z,1004.88
2022-12-15T10:56:34.696Z,1004.87
2022-12-15T10:57:34.691Z,1004.81
2022-12-15T10:58:34.435Z,1004.82
2022-12-15T10:59:34.420Z,1004.87
2022-12-15T11:00:34.326Z,1004.93
2022-12-15T11:01:34.475Z,1004.94
2022-12-15T11:02:34.651Z,1004.90
2022-12-15T11:03:34.564Z,1004.87
2022-12-15T11:04:34.103Z,1004.94
2022-12-15T11:05:33.964Z,1004.94
2022-12-15T11:06:33.953Z,1004.96
2022-12-15T11:07:33.840Z,1004.94
2022-12-15T11:08:33.848Z,1004.92
2022-12-15T11:09:33.709Z,1004.97
2022-12-15T11:10:33.621Z,1004.97
2022-12-15T11:11:33.582Z,1004.99
2022-12-15T11:12:33.470Z,1004.93
2022-12-15T11:13:35.239Z,1004.98
2022-12-15T11:14:33.329Z,1005.01
2022-12-15T11:15:33.312Z,1004.99
2022-12-15T11:16:33.392Z,1004.97
2022-12-15T11:17:33.209Z,1004.97
2022-12-15T11:18:33.030Z,1004.98
2022-12-15T11:19:32.991Z,1004.97
2022-12-15T11:20:32.901Z,1004.98
2022-12-15T11:21:33.248Z,1004.98
2022-12-15T11:22:32.762Z,1004.84
2022-12-15T11:23:33.159Z,1004.98
2022-12-15T11:24:32.713Z,1004.99
2022-12-15T11:25:32.837Z,1004.96
2022-12-15T11:26:32.506Z,1005.04
2022-12-15T11:27:32.430Z,1005.02
2022-12-15T11:28:32.349Z,1005.04
2022-12-15T11:29:32.286Z,1005.03
2022-12-15T11:30:32.229Z,1005.02
2022-12-15T11:31:32.126Z,1005.01
2022-12-15T11:32:32.072Z,1005.03
2022-12-15T11:33:32.498Z,1005.05
2022-12-15T11:34:31.990Z,1005.03
2022-12-15T11:35:31.949Z,1005.02
2022-12-15T11:36:31.813Z,1004.99
2022-12-15T11:37:36.301Z,1005.01
2022-12-15T11:38:31.701Z,1004.99
2022-12-15T11:39:31.582Z,1005.00
2022-12-15T11:40:31.485Z,1004.96
2022-12-15T11:41:31.476Z,1005.00
2022-12-15T11:42:31.333Z,1004.98
2022-12-15T11:43:31.855Z,1005.02
2022-12-15T11:44:31.194Z,1005.01
2022-12-15T11:45:31.143Z,1004.99
2022-12-15T11:46:31.093Z,1005.02
2022-12-15T11:47:30.989Z,1004.98
2022-12-15T11:48:30.940Z,1005.03
2022-12-15T11:49:31.180Z,1005.06
2022-12-15T11:50:30.814Z,1005.01
2022-12-15T11:51:30.792Z,1004.99
2022-12-15T11:52:30.791Z,1004.98
2022-12-15T11:53:31.179Z,1004.98
2022-12-15T11:54:30.702Z,1004.97
2022-12-15T11:55:34.397Z,1005.00
2022-12-15T11:56:30.510Z,1004.99
2022-12-15T11:57:30.269Z,1004.99
2022-12-15T11:58:30.498Z,1004.98
2022-12-15T11:59:30.161Z,1004.97
2022-12-15T12:00:30.088Z,1004.95
2022-12-15T12:01:30.312Z,1004.99
2022-12-15T12:02:30.026Z,1004.99
2022-12-15T12:03:29.885Z,1005.00
2022-12-15T12:04:29.778Z,1004.98
2022-12-15T12:05:29.765Z,1005.05
2022-12-15T12:06:29.677Z,1004.94
2022-12-15T12:07:29.687Z,1004.95
2022-12-15T12:08:29.991Z,1004.97
2022-12-15T12:09:29.438Z,1004.94
2022-12-15T12:10:29.553Z,1004.92